createdAt,value
2018-05-14T00:01:39.146Z,1.70
2018-05-14T00:04:11.855Z,1.77
2018-05-14T00:06:45.153Z,1.47
2018-05-14T00:09:17.735Z,1.90
2018-05-14T00:11:50.988Z,2.40
2018-05-14T00:14:23.662Z,3.27
2018-05-14T00:16:56.251Z,2.47
2018-05-14T00:19:28.834Z,2.00
2018-05-14T00:22:01.467Z,4.33
2018-05-14T00:24:33.926Z,3.00
2018-05-14T00:27:09.730Z,3.80
2018-05-14T00:29:44.938Z,3.60
2018-05-14T00:32:17.519Z,4.10
2018-05-14T00:34:50.951Z,3.70
2018-05-14T00:37:23.468Z,9.67
2018-05-14T00:39:55.854Z,3.90
2018-05-14T00:42:29.566Z,3.90
2018-05-14T00:45:02.347Z,3.57
2018-05-14T00:47:34.803Z,3.63
2018-05-14T00:50:07.463Z,4.97
2018-05-14T00:52:40.638Z,3.27
2018-05-14T00:55:16.198Z,3.60
2018-05-14T00:57:48.734Z,3.93
2018-05-14T01:00:21.236Z,4.63
2018-05-14T01:02:53.885Z,3.37
2018-05-14T01:05:26.399Z,3.50
2018-05-14T01:08:00.099Z,4.43
2018-05-14T01:10:32.830Z,3.80
2018-05-14T01:13:05.517Z,3.60
2018-05-14T01:15:38.231Z,3.63
2018-05-14T01:18:10.846Z,3.50
2018-05-14T01:20:43.530Z,3.97
2018-05-14T01:23:16.083Z,3.00
2018-05-14T01:25:48.690Z,4.40
2018-05-14T01:28:21.246Z,4.47
2018-05-14T01:30:54.627Z,3.73
2018-05-14T01:33:27.030Z,4.40
2018-05-14T01:36:00.331Z,4.30
2018-05-14T01:38:33.096Z,4.30
2018-05-14T01:41:05.598Z,3.40
2018-05-14T01:43:38.127Z,4.33
2018-05-14T01:46:10.644Z,3.50
2018-05-14T01:48:44.064Z,3.90
2018-05-14T01:51:16.768Z,4.60
2018-05-14T01:53:49.408Z,4.80
2018-05-14T01:56:21.972Z,3.77
2018-05-14T01:58:55.256Z,4.30
2018-05-14T02:01:28.418Z,4.60
2018-05-14T02:04:01.068Z,3.30
2018-05-14T02:06:33.775Z,3.80
2018-05-14T02:09:07.143Z,8.30
2018-05-14T02:11:43.111Z,3.50
2018-05-14T02:14:15.883Z,4.10
2018-05-14T02:16:48.333Z,4.10
2018-05-14T02:19:20.850Z,4.07
2018-05-14T02:21:55.512Z,3.87
2018-05-14T02:24:28.043Z,3.90
2018-05-14T02:27:00.498Z,5.13
2018-05-14T02:29:32.967Z,4.93
2018-05-14T02:32:09.206Z,5.93
2018-05-14T02:34:41.571Z,5.00
2018-05-14T02:37:14.703Z,4.57
2018-05-14T02:39:47.354Z,5.13
2018-05-14T02:42:19.854Z,5.17
2018-05-14T02:44:52.315Z,6.23
2018-05-14T02:47:29.355Z,5.67
2018-05-14T02:50:02.066Z,6.03
2018-05-14T02:52:34.846Z,5.50
2018-05-14T02:55:08.351Z,6.43
2018-05-14T02:57:41.947Z,6.17
2018-05-14T03:00:14.523Z,5.50
2018-05-14T03:02:47.014Z,5.50
2018-05-14T03:05:19.446Z,6.30
2018-05-14T03:07:52.019Z,5.17
2018-05-14T03:10:24.607Z,5.27
2018-05-14T03:12:57.126Z,5.93
2018-05-14T03:15:29.660Z,5.40
2018-05-14T03:18:02.154Z,5.67
2018-05-14T03:20:36.848Z,9.50
2018-05-14T03:23:09.979Z,5.53
2018-05-14T03:25:43.118Z,5.30
2018-05-14T03:28:26.279Z,6.13
2018-05-14T03:30:59.435Z,5.60
2018-05-14T03:33:32.043Z,5.30
2018-05-14T03:36:04.654Z,5.77
2018-05-14T03:38:37.646Z,5.33
2018-05-14T03:41:10.238Z,5.10
2018-05-14T03:43:42.693Z,5.33
2018-05-14T03:46:15.219Z,5.20
2018-05-14T03:48:49.889Z,5.33
2018-05-14T03:51:23.102Z,6.10
2018-05-14T03:53:55.604Z,4.90
2018-05-14T03:56:28.180Z,5.73
2018-05-14T03:59:12.876Z,5.73
2018-05-14T04:01:57.521Z,7.37
2018-05-14T04:04:42.451Z,6.53
2018-05-14T04:07:18.903Z,5.53
2018-05-14T04:09:52.346Z,6.20
2018-05-14T04:12:28.672Z,6.23
2018-05-14T04:15:01.393Z,6.30
2018-05-14T04:17:37.686Z,6.60
2018-05-14T04:20:22.336Z,6.50
2018-05-14T04:22:58.956Z,6.40
2018-05-14T04:25:31.683Z,7.03
2018-05-14T04:28:10.348Z,7.57
2018-05-14T04:30:42.847Z,7.30
2018-05-14T04:33:15.605Z,6.90
2018-05-14T04:35:59.854Z,7.90
2018-05-14T04:38:32.386Z,8.23
2018-05-14T04:41:15.208Z,8.23
2018-05-14T04:43:49.776Z,8.60
2018-05-14T04:46:36.444Z,8.93
2018-05-14T04:49:08.979Z,10.00
2018-05-14T04:51:42.849Z,10.33
2018-05-14T04:54:16.288Z,10.10
2018-05-14T04:56:54.861Z,11.10
2018-05-14T04:59:28.211Z,9.00
2018-05-14T05:02:08.106Z,8.87
2018-05-14T05:04:44.581Z,9.30
2018-05-14T05:07:18.406Z,9.67
2018-05-14T05:09:51.059Z,9.80
2018-05-14T05:12:25.003Z,10.97
2018-05-14T05:14:57.658Z,9.40
2018-05-14T05:17:42.363Z,9.40
2018-05-14T05:20:15.054Z,10.17
2018-05-14T05:22:47.568Z,9.30
2018-05-14T05:25:22.048Z,9.60
2018-05-14T05:27:55.919Z,8.90
2018-05-14T05:30:29.113Z,9.67
2018-05-14T05:33:03.673Z,10.70
2018-05-14T05:35:36.316Z,9.67
2018-05-14T05:38:09.012Z,9.60
2018-05-14T05:40:41.759Z,12.60
2018-05-14T05:43:21.854Z,10.37
2018-05-14T05:45:54.478Z,8.40
2018-05-14T05:48:29.663Z,9.60
2018-05-14T05:51:02.425Z,9.50
2018-05-14T05:53:35.839Z,8.17
2018-05-14T05:56:09.455Z,6.50
2018-05-14T05:58:43.142Z,7.97
2018-05-14T06:01:15.769Z,7.53
2018-05-14T06:03:49.511Z,7.40
2018-05-14T06:06:21.971Z,6.37
2018-05-14T06:08:54.554Z,6.73
2018-05-14T06:11:30.587Z,7.70
2018-05-14T06:14:03.751Z,7.60
2018-05-14T06:16:37.125Z,6.50
2018-05-14T06:19:10.581Z,8.40
2018-05-14T06:21:42.963Z,7.50
2018-05-14T06:24:16.251Z,7.77
2018-05-14T06:26:49.692Z,8.23
2018-05-14T06:29:22.851Z,8.00
2018-05-14T06:31:55.266Z,7.30
2018-05-14T06:34:27.803Z,7.10
2018-05-14T06:37:00.152Z,9.87
2018-05-14T06:39:33.854Z,6.97
2018-05-14T06:42:06.639Z,8.90
2018-05-14T06:44:39.988Z,8.33
2018-05-14T06:47:22.475Z,8.30
2018-05-14T06:49:55.842Z,9.00
2018-05-14T06:52:29.013Z,8.57
2018-05-14T06:55:10.492Z,8.17
2018-05-14T06:57:44.993Z,9.07
2018-05-14T07:00:23.510Z,9.10
2018-05-14T07:02:56.115Z,9.13
2018-05-14T07:05:28.751Z,9.90
2018-05-14T07:08:02.547Z,9.17
2018-05-14T07:10:35.252Z,9.40
2018-05-14T07:13:07.898Z,9.17
2018-05-14T07:15:40.578Z,11.00
2018-05-14T07:18:13.033Z,9.10
2018-05-14T07:20:46.415Z,9.80
2018-05-14T07:23:19.561Z,9.40
2018-05-14T07:25:52.262Z,9.93
2018-05-14T07:28:24.857Z,10.53
2018-05-14T07:30:57.335Z,9.20
2018-05-14T07:33:29.999Z,11.33
2018-05-14T07:36:02.779Z,9.90
2018-05-14T07:38:36.342Z,12.20
2018-05-14T07:41:09.690Z,10.57
2018-05-14T07:43:42.091Z,11.67
2018-05-14T07:46:15.790Z,16.80
2018-05-14T07:48:53.100Z,10.37
2018-05-14T07:51:25.712Z,11.10
2018-05-14T07:53:59.100Z,12.43
2018-05-14T07:56:31.620Z,11.80
2018-05-14T07:59:04.069Z,11.40
2018-05-14T08:01:38.486Z,9.93
2018-05-14T08:04:11.711Z,8.70
2018-05-14T08:06:44.397Z,8.03
2018-05-14T08:09:16.961Z,11.23
2018-05-14T08:11:49.433Z,9.70
2018-05-14T08:14:21.918Z,8.90
2018-05-14T08:16:54.328Z,9.27
2018-05-14T08:19:26.850Z,9.10
2018-05-14T08:21:59.227Z,10.60
2018-05-14T08:24:31.754Z,9.43
2018-05-14T08:27:05.070Z,7.40
2018-05-14T08:29:38.729Z,10.50
2018-05-14T08:32:11.334Z,10.60
2018-05-14T08:34:44.528Z,11.10
2018-05-14T08:37:17.004Z,11.10
2018-05-14T08:39:49.747Z,11.43
2018-05-14T08:42:22.226Z,11.50
2018-05-14T08:44:54.799Z,9.93
2018-05-14T08:47:27.962Z,9.13
2018-05-14T08:50:01.278Z,15.00
2018-05-14T08:52:33.619Z,11.93
2018-05-14T08:55:06.079Z,11.63
2018-05-14T08:57:38.783Z,14.73
2018-05-14T09:00:11.356Z,12.53
2018-05-14T09:02:44.714Z,11.40
2018-05-14T09:05:17.138Z,12.40
2018-05-14T09:07:50.554Z,13.43
2018-05-14T09:10:22.947Z,11.60
2018-05-14T09:12:56.308Z,12.70
2018-05-14T09:15:28.670Z,14.27
2018-05-14T09:18:01.191Z,13.73
2018-05-14T09:20:33.627Z,14.40
2018-05-14T09:23:06.915Z,14.40
2018-05-14T09:25:39.338Z,12.73
2018-05-14T09:28:12.783Z,12.60
2018-05-14T09:30:45.203Z,14.30
2018-05-14T09:33:17.762Z,15.90
2018-05-14T09:35:50.143Z,14.00
2018-05-14T09:38:22.634Z,11.83
2018-05-14T09:40:55.146Z,11.97
2018-05-14T09:43:27.782Z,19.20
2018-05-14T09:46:00.302Z,12.77
2018-05-14T09:48:32.818Z,16.80
2018-05-14T09:51:05.211Z,14.57
2018-05-14T09:53:37.667Z,15.83
2018-05-14T09:56:11.126Z,18.30
2018-05-14T09:58:43.499Z,13.03
2018-05-14T10:01:15.997Z,14.60
2018-05-14T10:03:49.099Z,13.97
2018-05-14T10:06:22.319Z,15.27
2018-05-14T10:08:54.847Z,14.70
2018-05-14T10:11:27.248Z,14.83
2018-05-14T10:14:00.483Z,13.13
2018-05-14T10:16:33.063Z,16.73
2018-05-14T10:19:07.722Z,14.30
2018-05-14T10:21:40.330Z,16.10
2018-05-14T10:24:12.744Z,14.00
2018-05-14T10:26:48.096Z,12.93
2018-05-14T10:29:21.210Z,15.50
2018-05-14T10:31:53.672Z,14.97
2018-05-14T10:34:26.364Z,14.33
2018-05-14T10:36:58.972Z,15.40
2018-05-14T10:39:34.872Z,12.80
2018-05-14T10:42:07.238Z,14.50
2018-05-14T10:44:39.650Z,18.53
2018-05-14T10:47:18.436Z,16.03
2018-05-14T10:49:50.836Z,15.23
2018-05-14T10:52:23.289Z,20.53
2018-05-14T10:54:55.703Z,16.20
2018-05-14T10:57:28.279Z,14.80
2018-05-14T11:00:00.869Z,16.27
2018-05-14T11:02:33.336Z,19.17
2018-05-14T11:05:05.955Z,18.43
2018-05-14T11:07:38.526Z,15.43
2018-05-14T11:10:11.351Z,15.43
2018-05-14T11:12:47.520Z,18.53
2018-05-14T11:15:20.254Z,16.17
2018-05-14T11:17:52.708Z,16.93
2018-05-14T11:20:25.249Z,16.40
2018-05-14T11:22:58.482Z,18.40
2018-05-14T11:25:30.985Z,22.67
2018-05-14T11:28:05.698Z,24.57
2018-05-14T11:30:38.346Z,22.40
2018-05-14T11:33:11.950Z,18.53
2018-05-14T11:35:44.667Z,20.30
2018-05-14T11:38:17.267Z,22.37
2018-05-14T11:40:49.791Z,22.93
2018-05-14T11:43:22.163Z,41.50
2018-05-14T11:45:54.819Z,21.00
2018-05-14T11:48:27.310Z,18.47
2018-05-14T11:50:59.922Z,19.57
2018-05-14T11:53:32.326Z,15.70
2018-05-14T11:56:06.055Z,21.10
2018-05-14T11:58:42.156Z,17.37
2018-05-14T12:01:14.761Z,19.50
2018-05-14T12:03:48.464Z,17.60
2018-05-14T12:06:21.006Z,17.50
2018-05-14T12:08:54.318Z,16.40
2018-05-14T12:11:26.789Z,14.80
2018-05-14T12:13:59.434Z,17.90
2018-05-14T12:16:39.251Z,18.60
2018-05-14T12:19:12.017Z,16.90
2018-05-14T12:21:48.686Z,17.47
2018-05-14T12:24:21.316Z,17.30
2018-05-14T12:26:53.737Z,15.23
2018-05-14T12:29:27.643Z,18.27
2018-05-14T12:32:00.308Z,19.20
2018-05-14T12:34:34.630Z,18.03
2018-05-14T12:37:07.040Z,24.03
2018-05-14T12:39:39.698Z,17.90
2018-05-14T12:42:12.463Z,19.57
2018-05-14T12:44:44.942Z,19.87
2018-05-14T12:47:17.406Z,21.10
2018-05-14T12:49:50.047Z,21.70
2018-05-14T12:52:22.684Z,19.40
2018-05-14T12:54:55.975Z,17.47
2018-05-14T12:57:29.139Z,19.33
2018-05-14T13:00:01.783Z,17.47
2018-05-14T13:02:35.219Z,16.57
2018-05-14T13:05:07.653Z,15.57
2018-05-14T13:07:43.774Z,16.60
2018-05-14T13:10:16.430Z,16.90
2018-05-14T13:12:49.100Z,17.63
2018-05-14T13:15:21.562Z,17.83
2018-05-14T13:17:54.159Z,18.00
2018-05-14T13:20:26.983Z,18.10
2018-05-14T13:22:59.684Z,19.73
2018-05-14T13:25:32.042Z,18.60
2018-05-14T13:28:07.523Z,14.67
2018-05-14T13:30:41.549Z,16.80
2018-05-14T13:33:15.099Z,14.27
2018-05-14T13:35:47.889Z,18.40
2018-05-14T13:38:20.367Z,21.27
2018-05-14T13:40:52.947Z,18.93
2018-05-14T13:43:25.631Z,16.30
2018-05-14T13:45:58.169Z,15.43
2018-05-14T13:48:30.895Z,16.97
2018-05-14T13:51:03.468Z,17.53
2018-05-14T13:53:36.087Z,22.30
2018-05-14T13:56:08.723Z,17.40
2018-05-14T13:58:47.082Z,17.50
2018-05-14T14:01:22.862Z,18.10
2018-05-14T14:03:55.304Z,20.50
2018-05-14T14:06:28.762Z,19.00
2018-05-14T14:09:01.224Z,19.27
2018-05-14T14:11:34.433Z,21.23
2018-05-14T14:14:06.989Z,19.63
2018-05-14T14:16:39.556Z,20.97
2018-05-14T14:19:12.298Z,21.70
2018-05-14T14:21:44.687Z,18.57
2018-05-14T14:24:18.139Z,18.77
2018-05-14T14:26:50.619Z,19.90
2018-05-14T14:29:24.363Z,21.00
2018-05-14T14:31:57.116Z,24.80
2018-05-14T14:34:29.672Z,23.30
2018-05-14T14:37:03.452Z,22.83
2018-05-14T14:39:36.075Z,26.30
2018-05-14T14:42:08.682Z,22.43
2018-05-14T14:44:41.408Z,22.33
2018-05-14T14:47:13.925Z,21.30
2018-05-14T14:49:49.709Z,23.63
2018-05-14T14:52:22.366Z,31.30
2018-05-14T14:54:55.075Z,20.17
2018-05-14T14:57:27.563Z,21.93
2018-05-14T15:00:00.080Z,27.90
2018-05-14T15:02:32.562Z,21.23
2018-05-14T15:05:09.864Z,23.80
2018-05-14T15:07:43.300Z,26.20
2018-05-14T15:10:16.027Z,21.10
2018-05-14T15:12:49.275Z,26.37
2018-05-14T15:15:22.732Z,27.30
2018-05-14T15:17:55.334Z,22.17
2018-05-14T15:20:27.914Z,23.43
2018-05-14T15:23:00.547Z,21.83
2018-05-14T15:25:33.228Z,26.03
2018-05-14T15:28:05.911Z,24.60
2018-05-14T15:30:38.455Z,25.97
2018-05-14T15:33:14.937Z,24.37
2018-05-14T15:35:47.989Z,24.00
2018-05-14T15:38:20.825Z,26.90
2018-05-14T15:40:53.334Z,23.67
2018-05-14T15:43:29.597Z,27.43
2018-05-14T15:46:02.335Z,22.47
2018-05-14T15:48:38.218Z,31.20
2018-05-14T15:51:10.848Z,25.53
2018-05-14T15:53:43.414Z,27.40
2018-05-14T15:56:16.177Z,28.10
2018-05-14T15:58:49.352Z,25.40
2018-05-14T16:01:22.039Z,28.13
2018-05-14T16:03:54.520Z,24.80
2018-05-14T16:06:27.186Z,26.10
2018-05-14T16:08:59.798Z,28.37
2018-05-14T16:11:32.434Z,27.93
2018-05-14T16:14:05.044Z,24.80
2018-05-14T16:16:41.937Z,23.33
2018-05-14T16:19:15.347Z,27.83
2018-05-14T16:21:48.755Z,26.27
2018-05-14T16:24:21.246Z,23.53
2018-05-14T16:26:54.779Z,27.60
2018-05-14T16:29:32.475Z,25.63
2018-05-14T16:32:11.189Z,28.50
2018-05-14T16:34:43.803Z,24.33
2018-05-14T16:37:16.451Z,26.50
2018-05-14T16:39:49.894Z,24.77
2018-05-14T16:42:22.483Z,25.30
2018-05-14T16:44:54.986Z,25.67
2018-05-14T16:47:27.526Z,28.20
2018-05-14T16:50:06.142Z,27.87
2018-05-14T16:52:38.775Z,27.20
2018-05-14T16:55:12.033Z,27.50
2018-05-14T16:57:44.932Z,20.33
2018-05-14T17:00:17.455Z,25.50
2018-05-14T17:02:50.087Z,26.27
2018-05-14T17:05:22.760Z,28.70
2018-05-14T17:07:55.498Z,23.20
2018-05-14T17:10:28.136Z,24.87
2018-05-14T17:13:01.359Z,22.13
2018-05-14T17:15:34.171Z,25.73
2018-05-14T17:18:06.868Z,24.60
2018-05-14T17:20:39.526Z,26.00
2018-05-14T17:23:12.094Z,24.10
2018-05-14T17:25:44.671Z,23.93
2018-05-14T17:28:17.327Z,23.47
2018-05-14T17:30:49.887Z,22.63
2018-05-14T17:33:22.687Z,22.13
2018-05-14T17:35:55.224Z,22.33
2018-05-14T17:38:27.691Z,21.97
2018-05-14T17:41:00.958Z,23.90
2018-05-14T17:43:36.098Z,28.00
2018-05-14T17:46:08.640Z,25.23
2018-05-14T17:48:41.237Z,24.20
2018-05-14T17:51:16.802Z,22.67
2018-05-14T17:53:49.415Z,23.53
2018-05-14T17:56:24.134Z,25.00
2018-05-14T17:58:56.721Z,25.00
2018-05-14T18:01:29.201Z,24.97
2018-05-14T18:04:01.818Z,21.97
2018-05-14T18:06:34.417Z,28.53
2018-05-14T18:09:07.804Z,22.00
2018-05-14T18:11:40.509Z,31.10
2018-05-14T18:14:12.993Z,23.13
2018-05-14T18:16:45.583Z,26.97
2018-05-14T18:19:18.221Z,28.23
2018-05-14T18:21:50.800Z,24.23
2018-05-14T18:24:23.327Z,29.83
2018-05-14T18:26:55.964Z,26.67
2018-05-14T18:29:32.989Z,25.10
2018-05-14T18:32:05.646Z,26.40
2018-05-14T18:34:39.186Z,27.53
2018-05-14T18:37:19.986Z,29.20
2018-05-14T18:39:53.545Z,30.53
2018-05-14T18:42:27.065Z,28.63
2018-05-14T18:45:02.834Z,27.63
2018-05-14T18:47:36.426Z,30.87
2018-05-14T18:50:10.084Z,33.80
2018-05-14T18:52:42.514Z,36.80
2018-05-14T18:55:15.114Z,23.70
2018-05-14T18:57:49.540Z,29.93
2018-05-14T19:00:24.075Z,32.10
2018-05-14T19:02:56.702Z,38.83
2018-05-14T19:05:30.203Z,35.07
2018-05-14T19:08:03.391Z,31.57
2018-05-14T19:10:42.117Z,37.07
2018-05-14T19:13:14.714Z,38.57
2018-05-14T19:15:54.909Z,33.30
2018-05-14T19:18:28.064Z,29.33
2018-05-14T19:21:01.697Z,26.40
2018-05-14T19:23:40.668Z,27.63
2018-05-14T19:26:13.801Z,29.83
2018-05-14T19:28:52.351Z,30.83
2018-05-14T19:31:24.819Z,25.87
2018-05-14T19:34:03.538Z,32.90
2018-05-14T19:36:35.943Z,34.40
2018-05-14T19:39:08.614Z,31.30
2018-05-14T19:41:41.438Z,31.40
2018-05-14T19:44:14.158Z,28.83
2018-05-14T19:46:47.403Z,28.03
2018-05-14T19:49:22.147Z,33.77
2018-05-14T19:51:54.825Z,30.83
2018-05-14T19:54:27.361Z,33.50
2018-05-14T19:57:00.838Z,41.43
2018-05-14T19:59:33.246Z,38.43
2018-05-14T20:02:09.291Z,34.00
2018-05-14T20:04:42.846Z,33.73
2018-05-14T20:07:15.339Z,28.10
2018-05-14T20:09:50.705Z,32.87
2018-05-14T20:12:23.126Z,28.93
2018-05-14T20:14:59.462Z,25.23
2018-05-14T20:17:34.018Z,26.00
2018-05-14T20:20:06.639Z,28.30
2018-05-14T20:22:39.093Z,29.83
2018-05-14T20:25:11.533Z,31.13
2018-05-14T20:27:44.083Z,32.77
2018-05-14T20:30:17.431Z,26.23
2018-05-14T20:32:55.715Z,32.73
2018-05-14T20:35:29.410Z,31.60
2018-05-14T20:38:05.186Z,28.10
2018-05-14T20:40:37.874Z,36.03
2018-05-14T20:43:11.243Z,29.90
2018-05-14T20:45:47.323Z,29.70
2018-05-14T20:48:20.015Z,28.43
2018-05-14T20:50:58.121Z,34.70
2018-05-14T20:53:31.393Z,30.03
2018-05-14T20:56:04.082Z,30.33
2018-05-14T20:58:37.606Z,26.30
2018-05-14T21:01:10.279Z,26.00
2018-05-14T21:03:42.878Z,29.70
2018-05-14T21:06:15.503Z,29.13
2018-05-14T21:08:48.115Z,27.73
2018-05-14T21:11:21.303Z,31.73
2018-05-14T21:13:53.695Z,31.20
2018-05-14T21:16:26.231Z,31.00
2018-05-14T21:19:00.949Z,37.03
2018-05-14T21:21:33.615Z,29.50
2018-05-14T21:24:06.226Z,33.40
2018-05-14T21:26:38.850Z,29.23
2018-05-14T21:29:15.415Z,31.90
2018-05-14T21:31:49.026Z,31.67
2018-05-14T21:34:21.513Z,31.30
2018-05-14T21:36:54.870Z,30.43
2018-05-14T21:39:27.433Z,24.57
2018-05-14T21:42:00.080Z,29.03
2018-05-14T21:44:32.619Z,24.67
2018-05-14T21:47:05.427Z,22.60
2018-05-14T21:49:39.271Z,25.00
2018-05-14T21:52:11.714Z,26.03
2018-05-14T21:54:44.471Z,24.50
2018-05-14T21:57:17.171Z,24.60
2018-05-14T21:59:50.652Z,36.13
2018-05-14T22:02:23.202Z,24.27
2018-05-14T22:04:55.846Z,27.13
2018-05-14T22:07:28.233Z,27.63
2018-05-14T22:10:00.997Z,26.97
2018-05-14T22:12:35.687Z,32.03
2018-05-14T22:15:08.869Z,34.03
2018-05-14T22:17:42.163Z,27.60
2018-05-14T22:20:15.365Z,31.20
2018-05-14T22:22:47.960Z,35.83
2018-05-14T22:25:20.573Z,31.17
2018-05-14T22:27:53.062Z,32.10
2018-05-14T22:30:26.768Z,35.33
2018-05-14T22:32:59.414Z,29.83
2018-05-14T22:35:31.986Z,32.20
2018-05-14T22:38:06.355Z,25.70
2018-05-14T22:40:38.900Z,44.47
2018-05-14T22:43:11.471Z,47.63
2018-05-14T22:45:43.897Z,31.20
2018-05-14T22:48:16.551Z,107.77
2018-05-14T22:50:49.967Z,72.47
2018-05-14T22:53:22.375Z,37.90
2018-05-14T22:55:58.232Z,31.90
2018-05-14T22:58:31.432Z,38.03
2018-05-14T23:01:04.726Z,46.47
2018-05-14T23:03:37.369Z,48.00
2018-05-14T23:06:09.919Z,64.43
2018-05-14T23:08:42.563Z,52.93
2018-05-14T23:11:15.115Z,41.27
2018-05-14T23:13:47.589Z,40.80
2018-05-14T23:16:20.772Z,45.70
2018-05-14T23:18:59.251Z,141.07
2018-05-14T23:21:31.864Z,67.50
2018-05-14T23:24:05.471Z,52.57
2018-05-14T23:26:38.873Z,33.97
2018-05-14T23:29:12.606Z,43.33
2018-05-14T23:31:45.202Z,82.13
2018-05-14T23:34:17.787Z,92.30
2018-05-14T23:36:54.568Z,178.63
2018-05-14T23:39:27.350Z,33.77
2018-05-14T23:41:59.948Z,66.27
2018-05-14T23:44:32.576Z,119.93
2018-05-14T23:47:05.902Z,35.70
2018-05-14T23:49:38.585Z,35.50
2018-05-14T23:52:11.174Z,31.90
2018-05-14T23:54:43.899Z,31.10
2018-05-14T23:57:16.388Z,70.83
2018-05-14T23:59:48.814Z,58.43
